sensor_id;sensor_type;location;lat;lon;timestamp;pressure;altitude;pressure_sealevel;temperature;humidity
56894;BME280;43392;50.078;13.704;2023-10-08T00:01:37;97244.50;;;16.87;64.12
56894;BME280;43392;50.078;13.704;2023-10-08T00:04:07;97246.63;;;16.77;64.72
56894;BME280;43392;50.078;13.704;2023-10-08T00:06:34;97230.09;;;16.78;64.84
56894;BME280;43392;50.078;13.704;2023-10-08T00:09:00;97247.75;;;16.76;64.44
56894;BME280;43392;50.078;13.704;2023-10-08T00:11:34;97245.34;;;16.74;64.79
56894;BME280;43392;50.078;13.704;2023-10-08T00:14:01;97247.88;;;16.71;64.68
56894;BME280;43392;50.078;13.704;2023-10-08T00:16:30;97238.94;;;16.70;64.84
56894;BME280;43392;50.078;13.704;2023-10-08T00:18:59;97238.47;;;16.68;64.64
56894;BME280;43392;50.078;13.704;2023-10-08T00:21:28;97236.03;;;16.67;64.71
56894;BME280;43392;50.078;13.704;2023-10-08T00:23:58;97242.88;;;16.64;65.03
56894;BME280;43392;50.078;13.704;2023-10-08T00:26:25;97246.69;;;16.63;65.12
56894;BME280;43392;50.078;13.704;2023-10-08T00:28:57;97246.69;;;16.63;64.94
56894;BME280;43392;50.078;13.704;2023-10-08T00:31:25;97244.59;;;16.60;65.00
56894;BME280;43392;50.078;13.704;2023-10-08T00:33:56;97253.03;;;16.58;65.03
56894;BME280;43392;50.078;13.704;2023-10-08T00:36:22;97252.56;;;16.56;65.45
56894;BME280;43392;50.078;13.704;2023-10-08T00:38:49;97247.91;;;16.57;65.33
56894;BME280;43392;50.078;13.704;2023-10-08T00:41:19;97239.91;;;16.52;65.46
56894;BME280;43392;50.078;13.704;2023-10-08T00:43:47;97242.63;;;16.52;65.20
56894;BME280;43392;50.078;13.704;2023-10-08T00:46:16;97240.19;;;16.50;65.33
56894;BME280;43392;50.078;13.704;2023-10-08T00:48:49;97237.31;;;16.47;65.49
56894;BME280;43392;50.078;13.704;2023-10-08T00:51:19;97227.09;;;16.44;65.68
56894;BME280;43392;50.078;13.704;2023-10-08T00:54:00;97234.19;;;16.40;65.54
56894;BME280;43392;50.078;13.704;2023-10-08T00:56:32;97233.72;;;16.38;66.14
56894;BME280;43392;50.078;13.704;2023-10-08T00:59:15;97244.66;;;16.33;66.28
56894;BME280;43392;50.078;13.704;2023-10-08T01:01:48;97237.44;;;16.28;66.42
56894;BME280;43392;50.078;13.704;2023-10-08T01:04:17;97231.06;;;16.24;66.71
56894;BME280;43392;50.078;13.704;2023-10-08T01:06:49;97231.66;;;16.21;66.75
56894;BME280;43392;50.078;13.704;2023-10-08T01:09:19;97229.56;;;16.18;66.59
56894;BME280;43392;50.078;13.704;2023-10-08T01:12:10;97230.97;;;16.16;66.50
56894;BME280;43392;50.078;13.704;2023-10-08T01:14:41;97234.78;;;16.15;67.07
56894;BME280;43392;50.078;13.704;2023-10-08T01:17:14;97244.59;;;16.11;66.69
56894;BME280;43392;50.078;13.704;2023-10-08T01:19:41;97235.22;;;16.08;66.81
56894;BME280;43392;50.078;13.704;2023-10-08T01:22:12;97232.50;;;16.08;66.81
56894;BME280;43392;50.078;13.704;2023-10-08T01:24:43;97230.56;;;16.09;67.20
56894;BME280;43392;50.078;13.704;2023-10-08T01:27:11;97239.59;;;16.04;67.17
56894;BME280;43392;50.078;13.704;2023-10-08T01:29:41;97244.22;;;16.04;67.21
56894;BME280;43392;50.078;13.704;2023-10-08T01:32:09;97238.63;;;16.00;67.68
56894;BME280;43392;50.078;13.704;2023-10-08T01:34:36;97234.63;;;15.98;67.69
56894;BME280;43392;50.078;13.704;2023-10-08T01:37:04;97233.50;;;15.99;67.37
56894;BME280;43392;50.078;13.704;2023-10-08T01:39:36;97233.63;;;15.93;67.73
56894;BME280;43392;50.078;13.704;2023-10-08T01:42:03;97226.59;;;15.92;68.11
56894;BME280;43392;50.078;13.704;2023-10-08T01:44:31;97234.72;;;15.92;67.86
56894;BME280;43392;50.078;13.704;2023-10-08T01:46:59;97224.13;;;15.96;67.75
56894;BME280;43392;50.078;13.704;2023-10-08T01:49:26;97240.03;;;15.98;68.25
56894;BME280;43392;50.078;13.704;2023-10-08T01:51:57;97224.88;;;15.97;67.81
56894;BME280;43392;50.078;13.704;2023-10-08T01:54:24;97240.63;;;15.94;68.20
56894;BME280;43392;50.078;13.704;2023-10-08T01:56:52;97242.03;;;15.92;68.43
56894;BME280;43392;50.078;13.704;2023-10-08T01:59:19;97237.44;;;15.92;68.42
56894;BME280;43392;50.078;13.704;2023-10-08T02:01:46;97245.53;;;15.92;68.15
56894;BME280;43392;50.078;13.704;2023-10-08T02:04:13;97236.34;;;15.93;68.61
56894;BME280;43392;50.078;13.704;2023-10-08T02:06:41;97239.03;;;15.93;68.26
56894;BME280;43392;50.078;13.704;2023-10-08T02:09:08;97223.59;;;15.94;68.63
56894;BME280;43392;50.078;13.704;2023-10-08T02:11:43;97243.34;;;15.94;68.50
56894;BME280;43392;50.078;13.704;2023-10-08T02:14:11;97232.50;;;15.94;68.23
56894;BME280;43392;50.078;13.704;2023-10-08T02:16:40;97230.78;;;15.99;68.22
56894;BME280;43392;50.078;13.704;2023-10-08T02:19:07;97222.06;;;16.02;68.38
56894;BME280;43392;50.078;13.704;2023-10-08T02:21:36;97217.69;;;16.06;68.63
56894;BME280;43392;50.078;13.704;2023-10-08T02:24:03;97200.81;;;16.09;68.66
56894;BME280;43392;50.078;13.704;2023-10-08T02:26:30;97203.72;;;16.12;68.05
56894;BME280;43392;50.078;13.704;2023-10-08T02:28:58;97217.75;;;16.14;68.14
56894;BME280;43392;50.078;13.704;2023-10-08T02:31:26;97217.75;;;16.14;68.44
56894;BME280;43392;50.078;13.704;2023-10-08T02:33:53;97209.63;;;16.14;68.30
56894;BME280;43392;50.078;13.704;2023-10-08T02:36:20;97210.94;;;16.17;68.04
56894;BME280;43392;50.078;13.704;2023-10-08T02:38:46;97202.50;;;16.18;68.34
56894;BME280;43392;50.078;13.704;2023-10-08T02:41:15;97201.91;;;16.21;68.57
56894;BME280;43392;50.078;13.704;2023-10-08T02:43:42;97206.50;;;16.21;68.11
56894;BME280;43392;50.078;13.704;2023-10-08T02:46:10;97200.00;;;16.22;68.46
56894;BME280;43392;50.078;13.704;2023-10-08T02:48:41;97189.66;;;16.24;68.54
56894;BME280;43392;50.078;13.704;2023-10-08T02:51:08;97179.81;;;16.28;68.24
56894;BME280;43392;50.078;13.704;2023-10-08T02:53:39;97189.53;;;16.29;68.87
56894;BME280;43392;50.078;13.704;2023-10-08T02:56:08;97184.34;;;16.32;69.08
56894;BME280;43392;50.078;13.704;2023-10-08T02:58:38;97198.34;;;16.34;68.96
56894;BME280;43392;50.078;13.704;2023-10-08T03:01:05;97216.38;;;16.39;68.97
56894;BME280;43392;50.078;13.704;2023-10-08T03:03:32;97234.53;;;16.38;70.12
56894;BME280;43392;50.078;13.704;2023-10-08T03:06:00;97222.28;;;16.41;70.26
56894;BME280;43392;50.078;13.704;2023-10-08T03:08:28;97234.72;;;16.42;70.36
56894;BME280;43392;50.078;13.704;2023-10-08T03:10:56;97252.53;;;16.43;70.31
56894;BME280;43392;50.078;13.704;2023-10-08T03:13:28;97246.03;;;16.44;70.39
56894;BME280;43392;50.078;13.704;2023-10-08T03:15:54;97244.44;;;16.43;70.47
56894;BME280;43392;50.078;13.704;2023-10-08T03:18:33;97241.72;;;16.43;69.99
56894;BME280;43392;50.078;13.704;2023-10-08T03:21:04;97237.59;;;16.45;69.91
56894;BME280;43392;50.078;13.704;2023-10-08T03:23:45;97238.91;;;16.48;69.74
56894;BME280;43392;50.078;13.704;2023-10-08T03:26:13;97228.88;;;16.48;70.29
56894;BME280;43392;50.078;13.704;2023-10-08T03:28:59;97229.69;;;16.49;70.11
56894;BME280;43392;50.078;13.704;2023-10-08T03:31:30;97234.78;;;16.50;70.18
56894;BME280;43392;50.078;13.704;2023-10-08T03:34:15;97243.13;;;16.54;69.83
56894;BME280;43392;50.078;13.704;2023-10-08T03:36:46;97239.00;;;16.56;70.10
56894;BME280;43392;50.078;13.704;2023-10-08T03:39:15;97245.53;;;16.55;69.54
56894;BME280;43392;50.078;13.704;2023-10-08T03:41:44;97247.13;;;16.56;69.79
56894;BME280;43392;50.078;13.704;2023-10-08T03:44:24;97247.44;;;16.55;69.81
56894;BME280;43392;50.078;13.704;2023-10-08T03:46:50;97240.59;;;16.57;70.09
56894;BME280;43392;50.078;13.704;2023-10-08T03:49:18;97246.81;;;16.58;70.08
56894;BME280;43392;50.078;13.704;2023-10-08T03:51:53;97250.34;;;16.58;70.05
56894;BME280;43392;50.078;13.704;2023-10-08T03:54:23;97234.91;;;16.59;70.04
56894;BME280;43392;50.078;13.704;2023-10-08T03:56:55;97239.19;;;16.60;69.97
56894;BME280;43392;50.078;13.704;2023-10-08T03:59:22;97256.25;;;16.61;69.47
56894;BME280;43392;50.078;13.704;2023-10-08T04:01:57;97251.16;;;16.59;69.88
56894;BME280;43392;50.078;13.704;2023-10-08T04:04:26;97247.63;;;16.58;69.62
56894;BME280;43392;50.078;13.704;2023-10-08T04:07:09;97249.22;;;16.59;69.43
56894;BME280;43392;50.078;13.704;2023-10-08T04:10:04;97244.28;;;16.62;69.81
56894;BME280;43392;50.078;13.704;2023-10-08T04:12:56;97250.81;;;16.61;69.66
56894;BME280;43392;50.078;13.704;2023-10-08T04:15:23;97250.34;;;16.58;69.62
56894;BME280;43392;50.078;13.704;2023-10-08T04:17:49;97230.56;;;16.58;69.79
56894;BME280;43392;50.078;13.704;2023-10-08T04:20:17;97241.41;;;16.58;69.93
56894;BME280;43392;50.078;13.704;2023-10-08T04:22:59;97251.75;;;16.56;69.96
56894;BME280;43392;50.078;13.704;2023-10-08T04:25:27;97256.34;;;16.55;70.13
56894;BME280;43392;50.078;13.704;2023-10-08T04:27:54;97252.56;;;16.56;70.04
56894;BME280;43392;50.078;13.704;2023-10-08T04:30:24;97250.63;;;16.57;70.37
56894;BME280;43392;50.078;13.704;2023-10-08T04:32:57;97257.97;;;16.56;70.56
56894;BME280;43392;50.078;13.704;2023-10-08T04:35:24;97270.97;;;16.54;70.61
56894;BME280;43392;50.078;13.704;2023-10-08T04:37:52;97269.69;;;16.52;70.84
56894;BME280;43392;50.078;13.704;2023-10-08T04:40:19;97271.06;;;16.49;70.72
56894;BME280;43392;50.078;13.704;2023-10-08T04:42:50;97274.56;;;16.50;70.98
56894;BME280;43392;50.078;13.704;2023-10-08T04:45:19;97291.25;;;16.43;71.23
56894;BME280;43392;50.078;13.704;2023-10-08T04:47:51;97273.59;;;16.46;70.98
56894;BME280;43392;50.078;13.704;2023-10-08T04:50:19;97274.56;;;16.50;71.01
56894;BME280;43392;50.078;13.704;2023-10-08T04:52:46;97272.41;;;16.52;71.40
56894;BME280;43392;50.078;13.704;2023-10-08T04:55:23;97253.16;;;16.53;70.94
56894;BME280;43392;50.078;13.704;2023-10-08T04:57:55;97257.75;;;16.53;71.14
56894;BME280;43392;50.078;13.704;2023-10-08T05:00:23;97256.16;;;16.52;71.15
56894;BME280;43392;50.078;13.704;2023-10-08T05:03:06;97261.56;;;16.52;71.20
56894;BME280;43392;50.078;13.704;2023-10-08T05:05:39;97239.91;;;16.52;71.54
56894;BME280;43392;50.078;13.704;2023-10-08T05:08:20;97246.13;;;16.52;71.78
56894;BME280;43392;50.078;13.704;2023-10-08T05:10:54;97256.75;;;16.49;72.62
56894;BME280;43392;50.078;13.704;2023-10-08T05:13:41;97237.00;;;16.48;72.23
56894;BME280;43392;50.078;13.704;2023-10-08T05:16:23;97240.50;;;16.49;72.50
56894;BME280;43392;50.078;13.704;2023-10-08T05:19:25;97234.09;;;16.45;72.40
56894;BME280;43392;50.078;13.704;2023-10-08T05:22:14;97241.13;;;16.46;72.57
56894;BME280;43392;50.078;13.704;2023-10-08T05:25:01;97245.13;;;16.48;72.51
56894;BME280;43392;50.078;13.704;2023-10-08T05:27:37;97263.25;;;16.48;72.25
56894;BME280;43392;50.078;13.704;2023-10-08T05:30:25;97268.69;;;16.48;72.90
56894;BME280;43392;50.078;13.704;2023-10-08T05:32:54;97288.22;;;16.45;72.96
56894;BME280;43392;50.078;13.704;2023-10-08T05:35:38;97297.88;;;16.37;72.63
56894;BME280;43392;50.078;13.704;2023-10-08T05:38:21;97337.00;;;16.18;72.78
56894;BME280;43392;50.078;13.704;2023-10-08T05:41:13;97331.41;;;16.01;72.64
56894;BME280;43392;50.078;13.704;2023-10-08T05:43:53;97324.66;;;15.84;72.67
56894;BME280;43392;50.078;13.704;2023-10-08T05:46:38;97344.59;;;15.75;72.25
56894;BME280;43392;50.078;13.704;2023-10-08T05:49:31;97377.03;;;15.61;72.57
56894;BME280;43392;50.078;13.704;2023-10-08T05:52:20;97385.88;;;15.48;72.50
56894;BME280;43392;50.078;13.704;2023-10-08T05:55:06;97379.03;;;15.37;72.23
56894;BME280;43392;50.078;13.704;2023-10-08T05:57:41;97405.31;;;15.32;72.20
56894;BME280;43392;50.078;13.704;2023-10-08T06:00:17;97406.34;;;15.17;71.83
56894;BME280;43392;50.078;13.704;2023-10-08T06:02:56;97426.22;;;15.07;72.18
56894;BME280;43392;50.078;13.704;2023-10-08T06:05:37;97444.94;;;15.04;72.12
56894;BME280;43392;50.078;13.704;2023-10-08T06:08:12;97435.28;;;14.98;71.89
56894;BME280;43392;50.078;13.704;2023-10-08T06:10:42;97453.22;;;14.89;71.72
56894;BME280;43392;50.078;13.704;2023-10-08T06:13:13;97433.59;;;14.83;71.94
56894;BME280;43392;50.078;13.704;2023-10-08T06:15:43;97460.66;;;14.78;71.94
56894;BME280;43392;50.078;13.704;2023-10-08T06:18:19;97451.81;;;14.73;71.78
56894;BME280;43392;50.078;13.704;2023-10-08T06:20:45;97466.78;;;14.65;72.01
56894;BME280;43392;50.078;13.704;2023-10-08T06:23:13;97472.78;;;14.57;72.19
56894;BME280;43392;50.078;13.704;2023-10-08T06:25:41;97470.41;;;14.55;72.56
56894;BME280;43392;50.078;13.704;2023-10-08T06:28:20;97506.03;;;14.52;72.49
56894;BME280;43392;50.078;13.704;2023-10-08T06:30:51;97492.91;;;14.46;72.81
56894;BME280;43392;50.078;13.704;2023-10-08T06:33:21;97475.97;;;14.40;73.41
56894;BME280;43392;50.078;13.704;2023-10-08T06:35:50;97511.91;;;14.36;73.52
56894;BME280;43392;50.078;13.704;2023-10-08T06:38:27;97484.66;;;14.32;74.47
56894;BME280;43392;50.078;13.704;2023-10-08T06:40:56;97500.63;;;14.29;74.82
56894;BME280;43392;50.078;13.704;2023-10-08T06:43:25;97509.28;;;14.26;75.19
56894;BME280;43392;50.078;13.704;2023-10-08T06:45:52;97516.09;;;14.18;75.11
56894;BME280;43392;50.078;13.704;2023-10-08T06:48:24;97533.47;;;14.07;75.18
56894;BME280;43392;50.078;13.704;2023-10-08T06:50:55;97543.66;;;14.10;75.17
56894;BME280;43392;50.078;13.704;2023-10-08T06:53:24;97555.34;;;14.01;75.29
56894;BME280;43392;50.078;13.704;2023-10-08T06:55:50;97556.00;;;13.87;75.52
56894;BME280;43392;50.078;13.704;2023-10-08T06:58:22;97571.16;;;13.78;75.67
56894;BME280;43392;50.078;13.704;2023-10-08T07:00:49;97579.31;;;13.68;76.08
56894;BME280;43392;50.078;13.704;2023-10-08T07:03:16;97576.41;;;13.60;76.58
56894;BME280;43392;50.078;13.704;2023-10-08T07:05:46;97584.31;;;13.46;76.77
56894;BME280;43392;50.078;13.704;2023-10-08T07:08:24;97600.00;;;13.34;77.11
56894;BME280;43392;50.078;13.704;2023-10-08T07:10:51;97595.50;;;13.19;77.06
56894;BME280;43392;50.078;13.704;2023-10-08T07:13:18;97604.94;;;13.12;77.14
56894;BME280;43392;50.078;13.704;2023-10-08T07:15:48;97622.44;;;12.99;76.91
56894;BME280;43392;50.078;13.704;2023-10-08T07:18:15;97627.06;;;12.89;76.22
56894;BME280;43392;50.078;13.704;2023-10-08T07:20:52;97631.66;;;12.78;76.32
56894;BME280;43392;50.078;13.704;2023-10-08T07:23:27;97637.59;;;12.70;75.97
56894;BME280;43392;50.078;13.704;2023-10-08T07:25:55;97645.44;;;12.61;75.96
56894;BME280;43392;50.078;13.704;2023-10-08T07:28:27;97646.78;;;12.59;75.71
56894;BME280;43392;50.078;13.704;2023-10-08T07:30:55;97650.00;;;12.56;75.65
56894;BME280;43392;50.078;13.704;2023-10-08T07:33:23;97644.34;;;12.52;75.50
56894;BME280;43392;50.078;13.704;2023-10-08T07:35:52;97655.09;;;12.52;75.40
56894;BME280;43392;50.078;13.704;2023-10-08T07:38:25;97661.84;;;12.50;75.72
56894;BME280;43392;50.078;13.704;2023-10-08T07:40:55;97662.13;;;12.48;75.87
56894;BME280;43392;50.078;13.704;2023-10-08T07:43:22;97672.06;;;12.48;75.88
56894;BME280;43392;50.078;13.704;2023-10-08T07:45:48;97679.31;;;12.47;76.02
56894;BME280;43392;50.078;13.704;2023-10-08T07:48:15;97679.06;;;12.49;76.00
56894;BME280;43392;50.078;13.704;2023-10-08T07:50:43;97675.56;;;12.48;75.85
56894;BME280;43392;50.078;13.704;2023-10-08T07:53:12;97680.13;;;12.48;75.50
56894;BME280;43392;50.078;13.704;2023-10-08T07:55:46;97672.63;;;12.45;75.42
56894;BME280;43392;50.078;13.704;2023-10-08T07:58:14;97675.31;;;12.45;75.72
56894;BME280;43392;50.078;13.704;2023-10-08T08:00:41;97684.69;;;12.47;75.52
56894;BME280;43392;50.078;13.704;2023-10-08T08:03:19;97680.41;;;12.46;74.90
56894;BME280;43392;50.078;13.704;2023-10-08T08:05:47;97676.91;;;12.46;75.06
56894;BME280;43392;50.078;13.704;2023-10-08T08:08:20;97683.09;;;12.46;75.22
56894;BME280;43392;50.078;13.704;2023-10-08T08:10:49;97687.66;;;12.46;74.83
56894;BME280;43392;50.078;13.704;2023-10-08T08:13:23;97699.22;;;12.41;74.50
56894;BME280;43392;50.078;13.704;2023-10-08T08:15:53;97695.47;;;12.32;74.06
56894;BME280;43392;50.078;13.704;2023-10-08T08:18:24;97686.88;;;12.25;74.60
56894;BME280;43392;50.078;13.704;2023-10-08T08:20:55;97695.47;;;12.22;74.45
56894;BME280;43392;50.078;13.704;2023-10-08T08:23:29;97685.50;;;12.18;74.76
56894;BME280;43392;50.078;13.704;2023-10-08T08:25:56;97695.16;;;12.14;74.74
56894;BME280;43392;50.078;13.704;2023-10-08T08:28:37;97704.84;;;12.05;75.00
56894;BME280;43392;50.078;13.704;2023-10-08T08:31:04;97725.53;;;11.99;75.13
56894;BME280;43392;50.078;13.704;2023-10-08T08:33:39;97721.75;;;11.95;75.53
56894;BME280;43392;50.078;13.704;2023-10-08T08:36:18;97719.06;;;11.95;75.86
56894;BME280;43392;50.078;13.704;2023-10-08T08:38:47;97727.94;;;11.90;76.10
56894;BME280;43392;50.078;13.704;2023-10-08T08:41:14;97731.41;;;11.86;76.10
56894;BME280;43392;50.078;13.704;2023-10-08T08:43:44;97734.91;;;11.81;76.05
56894;BME280;43392;50.078;13.704;2023-10-08T08:46:11;97742.41;;;11.79;76.37
56894;BME280;43392;50.078;13.704;2023-10-08T08:48:40;97753.69;;;11.76;76.55
56894;BME280;43392;50.078;13.704;2023-10-08T08:51:07;97772.19;;;11.68;76.75
56894;BME280;43392;50.078;13.704;2023-10-08T08:53:38;97777.25;;;11.64;77.32
56894;BME280;43392;50.078;13.704;2023-10-08T08:56:08;97783.94;;;11.62;77.72
56894;BME280;43392;50.078;13.704;2023-10-08T08:58:36;97783.97;;;11.67;77.90
56894;BME280;43392;50.078;13.704;2023-10-08T09:01:06;97782.09;;;11.67;78.14
56894;BME280;43392;50.078;13.704;2023-10-08T09:03:35;97779.66;;;11.66;78.48
56894;BME280;43392;50.078;13.704;2023-10-08T09:06:02;97802.53;;;11.68;78.40
56894;BME280;43392;50.078;13.704;2023-10-08T09:08:33;97814.91;;;11.69;78.82
56894;BME280;43392;50.078;13.704;2023-10-08T09:11:00;97827.78;;;11.67;79.02
56894;BME280;43392;50.078;13.704;2023-10-08T09:13:32;97806.03;;;11.69;79.07
56894;BME280;43392;50.078;13.704;2023-10-08T09:16:07;97810.91;;;11.72;79.23
56894;BME280;43392;50.078;13.704;2023-10-08T09:18:34;97817.63;;;11.74;79.15
56894;BME280;43392;50.078;13.704;2023-10-08T09:21:08;97814.13;;;11.74;79.35
56894;BME280;43392;50.078;13.704;2023-10-08T09:23:39;97820.59;;;11.78;79.38
56894;BME280;43392;50.078;13.704;2023-10-08T09:26:09;97817.38;;;11.81;79.33
56894;BME280;43392;50.078;13.704;2023-10-08T09:28:38;97823.03;;;11.79;79.44
56894;BME280;43392;50.078;13.704;2023-10-08T09:31:06;97824.06;;;11.73;79.63
56894;BME280;43392;50.078;13.704;2023-10-08T09:33:36;97832.13;;;11.73;79.55
56894;BME280;43392;50.078;13.704;2023-10-08T09:36:04;97834.28;;;11.71;79.86
56894;BME280;43392;50.078;13.704;2023-10-08T09:38:33;97846.88;;;11.71;79.74
56894;BME280;43392;50.078;13.704;2023-10-08T09:41:00;97863.00;;;11.71;79.73
56894;BME280;43392;50.078;13.704;2023-10-08T09:43:28;97846.00;;;11.65;79.60
56894;BME280;43392;50.078;13.704;2023-10-08T09:46:06;97848.13;;;11.58;78.86
56894;BME280;43392;50.078;13.704;2023-10-08T09:48:37;97840.56;;;11.50;78.78
56894;BME280;43392;50.078;13.704;2023-10-08T09:51:05;97847.28;;;11.48;78.84
56894;BME280;43392;50.078;13.704;2023-10-08T09:53:36;97855.03;;;11.44;77.89
56894;BME280;43392;50.078;13.704;2023-10-08T09:56:13;97864.69;;;11.40;77.80
56894;BME280;43392;50.078;13.704;2023-10-08T09:58:41;97869.50;;;11.38;77.72
56894;BME280;43392;50.078;13.704;2023-10-08T10:01:10;97882.34;;;11.36;77.96
56894;BME280;43392;50.078;13.704;2023-10-08T10:03:37;97889.34;;;11.37;77.97
56894;BME280;43392;50.078;13.704;2023-10-08T10:06:11;97889.03;;;11.33;77.40
56894;BME280;43392;50.078;13.704;2023-10-08T10:08:40;97888.25;;;11.33;77.04
56894;BME280;43392;50.078;13.704;2023-10-08T10:11:07;97899.25;;;11.31;76.58
56894;BME280;43392;50.078;13.704;2023-10-08T10:13:35;97898.41;;;11.26;75.78
56894;BME280;43392;50.078;13.704;2023-10-08T10:16:05;97901.59;;;11.23;76.12
56894;BME280;43392;50.078;13.704;2023-10-08T10:18:34;97901.34;;;11.24;76.15
56894;BME280;43392;50.078;13.704;2023-10-08T10:21:28;97896.78;;;11.25;76.27
56894;BME280;43392;50.078;13.704;2023-10-08T10:23:56;97892.50;;;11.29;76.20
56894;BME280;43392;50.078;13.704;2023-10-08T10:26:25;97900.31;;;11.30;76.49
56894;BME280;43392;50.078;13.704;2023-10-08T10:29:18;97902.19;;;11.30;76.65
56894;BME280;43392;50.078;13.704;2023-10-08T10:31:46;97913.75;;;11.30;76.48
56894;BME280;43392;50.078;13.704;2023-10-08T10:34:17;97918.03;;;11.31;76.24
56894;BME280;43392;50.078;13.704;2023-10-08T10:36:45;97922.63;;;11.31;76.26
56894;BME280;43392;50.078;13.704;2023-10-08T10:39:15;97925.31;;;11.31;76.09
56894;BME280;43392;50.078;13.704;2023-10-08T10:41:43;97924.41;;;11.20;75.64
56894;BME280;43392;50.078;13.704;2023-10-08T10:44:10;97914.97;;;11.18;75.82
56894;BME280;43392;50.078;13.704;2023-10-08T10:46:40;97921.44;;;11.22;75.97
56894;BME280;43392;50.078;13.704;2023-10-08T10:49:08;97911.56;;;11.27;75.89
56894;BME280;43392;50.078;13.704;2023-10-08T10:51:49;97910.03;;;11.37;75.73
56894;BME280;43392;50.078;13.704;2023-10-08T10:54:22;97908.47;;;11.46;75.41
56894;BME280;43392;50.078;13.704;2023-10-08T10:56:49;97910.97;;;11.52;75.22
56894;BME280;43392;50.078;13.704;2023-10-08T10:59:29;97919.06;;;11.57;75.29
56894;BME280;43392;50.078;13.704;2023-10-08T11:02:01;97921.19;;;11.55;75.19
56894;BME280;43392;50.078;13.704;2023-10-08T11:04:34;97923.09;;;11.60;75.22
56894;BME280;43392;50.078;13.704;2023-10-08T11:07:14;97921.78;;;11.62;74.95
56894;BME280;43392;50.078;13.704;2023-10-08T11:09:42;97922.31;;;11.64;74.70
56894;BME280;43392;50.078;13.704;2023-10-08T11:12:10;97937.34;;;11.65;74.58
56894;BME280;43392;50.078;13.704;2023-10-08T11:14:38;97928.81;;;11.68;74.13
56894;BME280;43392;50.078;13.704;2023-10-08T11:17:12;97925.63;;;11.71;74.05
56894;BME280;43392;50.078;13.704;2023-10-08T11:19:40;97925.63;;;11.71;73.47
56894;BME280;43392;50.078;13.704;2023-10-08T11:22:08;97929.41;;;11.75;73.13
56894;BME280;43392;50.078;13.704;2023-10-08T11:24:43;97913.59;;;11.79;72.91
56894;BME280;43392;50.078;13.704;2023-10-08T11:27:13;97919.22;;;11.82;72.68
56894;BME280;43392;50.078;13.704;2023-10-08T11:29:43;97917.38;;;11.88;72.48
56894;BME280;43392;50.078;13.704;2023-10-08T11:32:11;97920.38;;;11.91;72.45
56894;BME280;43392;50.078;13.704;2023-10-08T11:34:41;97914.72;;;11.93;71.94
56894;BME280;43392;50.078;13.704;2023-10-08T11:37:11;97915.56;;;11.93;71.84
56894;BME280;43392;50.078;13.704;2023-10-08T11:39:47;97914.22;;;11.96;71.64
56894;BME280;43392;50.078;13.704;2023-10-08T11:42:15;97912.31;;;11.96;71.52
56894;BME280;43392;50.078;13.704;2023-10-08T11:45:14;97912.91;;;11.98;71.33
56894;BME280;43392;50.078;13.704;2023-10-08T11:47:51;97912.91;;;12.04;71.02
56894;BME280;43392;50.078;13.704;2023-10-08T11:50:24;97920.72;;;12.05;70.94
56894;BME280;43392;50.078;13.704;2023-10-08T11:52:59;97920.38;;;11.91;71.09
56894;BME280;43392;50.078;13.704;2023-10-08T11:55:30;97920.56;;;11.80;71.01
56894;BME280;43392;50.078;13.704;2023-10-08T11:58:00;97924.03;;;11.75;71.39
56894;BME280;43392;50.078;13.704;2023-10-08T12:00:35;97932.09;;;11.75;71.29
56894;BME280;43392;50.078;13.704;2023-10-08T12:03:09;97928.03;;;11.73;71.68
56894;BME280;43392;50.078;13.704;2023-10-08T12:05:36;97926.69;;;11.70;71.14
56894;BME280;43392;50.078;13.704;2023-10-08T12:08:05;97929.38;;;11.70;71.27
56894;BME280;43392;50.078;13.704;2023-10-08T12:10:34;97926.97;;;11.74;71.52
56894;BME280;43392;50.078;13.704;2023-10-08T12:13:01;97927.28;;;11.82;71.53
56894;BME280;43392;50.078;13.704;2023-10-08T12:15:31;97920.03;;;11.83;71.10
56894;BME280;43392;50.078;13.704;2023-10-08T12:18:04;97927.03;;;11.79;71.08
56894;BME280;43392;50.078;13.704;2023-10-08T12:20:41;97916.53;;;11.82;71.31
56894;BME280;43392;50.078;13.704;2023-10-08T12:23:09;97915.75;;;11.87;70.90
56894;BME280;43392;50.078;13.704;2023-10-08T12:25:38;97909.31;;;11.88;70.44
56894;BME280;43392;50.078;13.704;2023-10-08T12:28:05;97911.72;;;11.84;70.37
56894;BME280;43392;50.078;13.704;2023-10-08T12:30:32;97915.72;;;11.77;70.34
56894;BME280;43392;50.078;13.704;2023-10-08T12:33:07;97917.59;;;11.76;70.37
56894;BME280;43392;50.078;13.704;2023-10-08T12:35:38;97924.56;;;11.77;69.94
56894;BME280;43392;50.078;13.704;2023-10-08T12:38:06;97919.50;;;11.81;69.56
56894;BME280;43392;50.078;13.704;2023-10-08T12:40:34;97912.28;;;11.86;69.40
56894;BME280;43392;50.078;13.704;2023-10-08T12:43:14;97907.69;;;11.87;69.44
56894;BME280;43392;50.078;13.704;2023-10-08T12:45:45;97902.66;;;11.95;70.01
56894;BME280;43392;50.078;13.704;2023-10-08T12:48:18;97902.41;;;12.02;70.11
56894;BME280;43392;50.078;13.704;2023-10-08T12:50:45;97908.13;;;12.11;70.17
56894;BME280;43392;50.078;13.704;2023-10-08T12:53:21;97899.00;;;12.17;69.63
56894;BME280;43392;50.078;13.704;2023-10-08T12:55:52;97896.31;;;12.22;69.14
56894;BME280;43392;50.078;13.704;2023-10-08T12:58:22;97903.59;;;12.26;69.10
56894;BME280;43392;50.078;13.704;2023-10-08T13:00:52;97911.97;;;12.30;68.92
56894;BME280;43392;50.078;13.704;2023-10-08T13:03:23;97918.94;;;12.31;68.40
56894;BME280;43392;50.078;13.704;2023-10-08T13:05:50;97913.50;;;12.21;68.08
56894;BME280;43392;50.078;13.704;2023-10-08T13:08:18;97920.78;;;12.15;68.34
56894;BME280;43392;50.078;13.704;2023-10-08T13:10:45;97920.22;;;12.13;68.50
56894;BME280;43392;50.078;13.704;2023-10-08T13:13:12;97916.22;;;12.16;67.86